Time;durP1;ratioP1;P1;durP2;ratioP2;P2;SDS_P1;SDS_P2;PMS_P1;PMS_P2;Temp;Humidity;BMP_temperature;BMP_pressure;BME280_temperature;BME280_humidity;BME280_pressure;Samples;Min_cycle;Max_cycle;Signal;HPM_P1;HPM_P2
2022/12/01 00:00:05;;;;;;;;;;;7.90;99.90;;;;;;5052077;28;19971;-66
2022/12/01 00:02:33;;;;;;;;;;;7.90;99.90;;;;;;5052698;28;19976;-67
2022/12/01 00:05:01;;;;;;;;;;;8.00;99.90;;;;;;5052143;28;20473;-66
2022/12/01 00:07:28;;;;;;;;;;;8.00;99.90;;;;;;5052726;28;19975;-65
2022/12/01 00:12:44;;;;;;;;;;;8.20;99.90;;;;;;5052477;28;19972;-65
2022/12/01 00:15:12;;;;;;;;;;;8.20;99.90;;;;;;5052378;28;19974;-65
2022/12/01 00:17:42;;;;;;;;;;;8.20;99.90;;;;;;5056303;28;19970;-65
2022/12/01 00:20:11;;;;;;;;;;;8.30;99.90;;;;;;5063806;28;19964;-65
2022/12/01 00:22:41;;;;;;;;;;;8.40;99.90;;;;;;5052022;28;19972;-65
2022/12/01 00:25:11;;;;;;;;;;;8.20;99.90;;;;;;5052272;28;19968;-67
2022/12/01 00:27:39;;;;;;;;;;;7.80;99.90;;;;;;5052265;28;19968;-67
2022/12/01 00:30:08;;;;;;;;;;;7.60;99.90;;;;;;5051565;28;20470;-67
2022/12/01 00:32:36;;;;;;;;;;;7.30;99.90;;;;;;5052341;28;19994;-67
2022/12/01 00:35:04;;;;;;;;;;;7.10;99.90;;;;;;5052089;28;19972;-67
2022/12/01 00:37:33;;;;;;;;;;;7.10;99.90;;;;;;5052202;28;19979;-67
2022/12/01 00:40:00;;;;;;;;;;;7.00;99.90;;;;;;5051553;28;20078;-67
2022/12/01 00:42:29;;;;;;;;;;;6.90;99.90;;;;;;5052078;28;20364;-67
2022/12/01 00:44:57;;;;;;;;;;;7.10;99.90;;;;;;5051911;28;19974;-68
2022/12/01 00:47:25;;;;;;;;;;;7.10;99.90;;;;;;5052702;28;20439;-67
2022/12/01 00:49:53;;;;;;;;;;;7.00;99.90;;;;;;5061932;28;19967;-67
2022/12/01 00:52:20;;;;;;;;;;;6.90;99.90;;;;;;5071228;28;19968;-67
2022/12/01 00:54:48;;;;;;;;;;;6.90;99.90;;;;;;5064670;28;20453;-66
2022/12/01 00:57:16;;;;;;;;;;;6.80;99.90;;;;;;5051012;28;19971;-67
2022/12/01 00:59:45;;;;;;;;;;;6.90;99.90;;;;;;5050511;28;19968;-67
2022/12/01 01:02:13;;;;;;;;;;;7.20;99.90;;;;;;5051108;28;20010;-67
2022/12/01 01:04:41;;;;;;;;;;;7.30;99.90;;;;;;5049769;28;19999;-68
2022/12/01 01:07:08;;;;;;;;;;;7.40;99.90;;;;;;5050904;28;19975;-67
2022/12/01 01:09:36;;;;;;;;;;;7.30;99.90;;;;;;5050377;28;19968;-68
2022/12/01 01:12:04;;;;;;;;;;;7.30;99.90;;;;;;5050763;28;20479;-67
2022/12/01 01:14:32;;;;;;;;;;;7.20;99.90;;;;;;5050845;28;20464;-67
2022/12/01 01:17:01;;;;;;;;;;;7.10;99.90;;;;;;5050875;28;19974;-68
2022/12/01 01:19:29;;;;;;;;;;;7.00;99.90;;;;;;5060930;28;20026;-67
2022/12/01 01:21:56;;;;;;;;;;;6.80;99.90;;;;;;5070505;28;19968;-67
2022/12/01 01:24:24;;;;;;;;;;;6.90;99.90;;;;;;5070528;28;19968;-68
2022/12/01 01:26:54;;;;;;;;;;;6.90;99.90;;;;;;5070884;28;19994;-67
2022/12/01 01:29:21;;;;;;;;;;;6.90;99.90;;;;;;5060101;28;19972;-67
2022/12/01 01:31:49;;;;;;;;;;;6.90;99.90;;;;;;5050064;28;19978;-67
2022/12/01 01:34:18;;;;;;;;;;;7.00;99.90;;;;;;5050230;28;19968;-68
2022/12/01 01:36:46;;;;;;;;;;;7.20;99.90;;;;;;5050613;28;19968;-67
2022/12/01 01:39:14;;;;;;;;;;;7.30;99.90;;;;;;5050875;28;20402;-67
2022/12/01 01:41:41;;;;;;;;;;;7.30;99.90;;;;;;5049955;28;20059;-67
2022/12/01 01:44:28;;;;;;;;;;;7.20;99.90;;;;;;5050413;28;19968;-68
2022/12/01 01:46:56;;;;;;;;;;;6.90;99.90;;;;;;4989267;28;1729623;-67
2022/12/01 01:49:25;;;;;;;;;;;6.90;99.90;;;;;;5060787;28;19963;-67
2022/12/01 01:51:54;;;;;;;;;;;6.70;99.90;;;;;;5070770;28;20448;-67
2022/12/01 01:54:24;;;;;;;;;;;6.70;99.90;;;;;;5071115;28;19968;-67
2022/12/01 01:56:52;;;;;;;;;;;6.70;99.90;;;;;;5063358;28;20067;-70
2022/12/01 01:59:24;;;;;;;;;;;6.70;99.90;;;;;;5051157;28;19978;-68
2022/12/01 02:01:59;;;;;;;;;;;6.80;99.90;;;;;;5050909;28;19975;-67
2022/12/01 02:04:29;;;;;;;;;;;6.80;99.90;;;;;;5050936;28;19972;-67
2022/12/01 02:06:56;;;;;;;;;;;6.80;99.90;;;;;;5051316;28;19982;-69
2022/12/01 02:09:24;;;;;;;;;;;6.80;99.90;;;;;;5051246;28;19972;-67
2022/12/01 02:11:57;;;;;;;;;;;6.90;99.90;;;;;;5050195;28;20022;-67
2022/12/01 02:14:41;;;;;;;;;;;7.10;99.90;;;;;;5051107;28;19996;-68
2022/12/01 02:17:12;;;;;;;;;;;7.10;99.90;;;;;;5054339;28;19971;-67
2022/12/01 02:19:54;;;;;;;;;;;7.30;99.90;;;;;;5057082;28;19963;-68
2022/12/01 02:22:27;;;;;;;;;;;7.40;99.90;;;;;;5074641;28;19967;-67
2022/12/01 02:25:12;;;;;;;;;;;7.50;99.90;;;;;;5074709;28;19979;-67
2022/12/01 02:27:51;;;;;;;;;;;7.50;99.90;;;;;;5061498;28;19971;-68
2022/12/01 02:30:26;;;;;;;;;;;7.30;99.90;;;;;;5073951;28;19968;-67
2022/12/01 02:33:01;;;;;;;;;;;7.20;99.90;;;;;;5074589;28;20492;-68
2022/12/01 02:35:31;;;;;;;;;;;7.20;99.90;;;;;;5074051;28;19971;-67
2022/12/01 02:38:09;;;;;;;;;;;7.20;99.90;;;;;;5058595;28;19968;-67
2022/12/01 02:40:40;;;;;;;;;;;7.20;99.90;;;;;;5053888;28;19978;-68
2022/12/01 02:43:11;;;;;;;;;;;7.10;99.90;;;;;;5054459;28;19976;-67
2022/12/01 02:45:43;;;;;;;;;;;7.10;99.90;;;;;;5053900;28;19968;-67
2022/12/01 02:48:12;;;;;;;;;;;7.00;99.90;;;;;;5057662;28;20050;-67
2022/12/01 02:50:40;;;;;;;;;;;6.90;99.90;;;;;;5057607;28;19968;-67
2022/12/01 02:53:09;;;;;;;;;;;6.90;99.90;;;;;;5073524;28;19968;-67
2022/12/01 02:55:45;;;;;;;;;;;6.90;99.90;;;;;;5033844;28;19979;-67
2022/12/01 02:58:14;;;;;;;;;;;7.00;99.90;;;;;;5053057;28;19975;-67
2022/12/01 03:00:47;;;;;;;;;;;6.90;99.90;;;;;;5053401;28;20474;-67
2022/12/01 03:03:30;;;;;;;;;;;6.90;99.90;;;;;;5054070;28;20062;-67
2022/12/01 03:06:04;;;;;;;;;;;6.90;99.90;;;;;;5050878;28;20074;-67
2022/12/01 03:08:35;;;;;;;;;;;6.90;99.90;;;;;;5053970;28;19968;-67
2022/12/01 03:11:03;;;;;;;;;;;6.90;99.90;;;;;;5053069;28;20380;-67
2022/12/01 03:13:34;;;;;;;;;;;6.90;99.90;;;;;;5053834;28;19972;-66
2022/12/01 03:16:07;;;;;;;;;;;6.90;99.90;;;;;;5053697;28;19968;-66
2022/12/01 03:18:36;;;;;;;;;;;6.80;99.90;;;;;;5061507;28;19964;-66
2022/12/01 03:21:07;;;;;;;;;;;6.80;99.90;;;;;;5068417;28;19967;-66
2022/12/01 03:23:37;;;;;;;;;;;6.90;99.90;;;;;;5073759;28;19975;-67
2022/12/01 03:26:07;;;;;;;;;;;6.80;99.90;;;;;;5073488;28;19971;-67
2022/12/01 03:28:37;;;;;;;;;;;6.70;99.90;;;;;;5060141;28;20039;-67
2022/12/01 03:31:08;;;;;;;;;;;6.80;99.90;;;;;;5052477;28;19970;-67
2022/12/01 03:33:38;;;;;;;;;;;6.90;99.90;;;;;;5053490;28;19968;-67
2022/12/01 03:36:08;;;;;;;;;;;7.10;99.90;;;;;;5053418;28;19972;-66
2022/12/01 03:38:37;;;;;;;;;;;7.20;99.90;;;;;;5053435;28;19972;-67
2022/12/01 03:41:07;;;;;;;;;;;7.30;99.90;;;;;;5052676;28;19969;-67
2022/12/01 03:43:36;;;;;;;;;;;7.10;99.90;;;;;;5053141;28;19975;-67
2022/12/01 03:46:07;;;;;;;;;;;7.20;99.90;;;;;;5074783;22;19978;-61
2022/12/01 03:48:37;;;;;;;;;;;7.20;99.90;;;;;;5012794;28;20012;-61
2022/12/01 03:51:09;;;;;;;;;;;7.30;99.90;;;;;;5012710;28;19969;-61
2022/12/01 03:53:40;;;;;;;;;;;7.30;99.90;;;;;;5013342;28;19979;-61
2022/12/01 03:56:08;;;;;;;;;;;7.30;99.90;;;;;;5013096;28;19979;-62
2022/12/01 03:58:37;;;;;;;;;;;7.30;99.90;;;;;;5013147;28;20063;-62
2022/12/01 04:01:07;;;;;;;;;;;7.30;99.90;;;;;;5012350;28;19968;-62
2022/12/01 04:03:36;;;;;;;;;;;7.30;99.90;;;;;;5012830;28;19973;-62
2022/12/01 04:06:04;;;;;;;;;;;7.30;99.90;;;;;;5012884;28;20055;-62
2022/12/01 04:08:32;;;;;;;;;;;7.30;99.90;;;;;;5013129;28;19979;-62
2022/12/01 04:12:27;;;;;;;;;;;7.30;99.90;;;;;;5012280;28;19979;-62
2022/12/01 04:13:47;;;;;;;;;;;7.30;99.90;;;;;;5012977;28;19984;-62
2022/12/01 04:16:14;;;;;;;;;;;7.30;99.90;;;;;;5012594;28;19978;-62
2022/12/01 04:18:43;;;;;;;;;;;7.30;99.90;;;;;;5023170;28;20394;-62
2022/12/01 04:21:11;;;;;;;;;;;7.40;99.90;;;;;;5015554;28;19969;-61
2022/12/01 04:26:24;;;;;;;;;;;7.20;99.90;;;;;;5012591;28;19968;-62
2022/12/01 04:28:52;;;;;;;;;;;7.20;99.90;;;;;;5012713;28;20349;-62
2022/12/01 04:31:19;;;;;;;;;;;7.10;99.90;;;;;;5011422;28;20430;-62
2022/12/01 04:33:48;;;;;;;;;;;7.20;99.90;;;;;;5012356;28;19999;-61
2022/12/01 04:36:16;;;;;;;;;;;7.10;99.90;;;;;;5011555;28;19973;-63
2022/12/01 04:38:44;;;;;;;;;;;7.20;99.90;;;;;;5012517;28;19968;-61
2022/12/01 04:41:12;;;;;;;;;;;7.10;99.90;;;;;;5011850;28;20345;-61
2022/12/01 04:43:40;;;;;;;;;;;7.10;99.90;;;;;;5012518;28;19979;-62
2022/12/01 04:46:08;;;;;;;;;;;7.20;99.90;;;;;;5012130;28;19975;-61
2022/12/01 04:48:37;;;;;;;;;;;7.20;99.90;;;;;;5020362;28;20060;-62
2022/12/01 04:51:07;;;;;;;;;;;7.10;99.90;;;;;;5027327;28;20054;-62
2022/12/01 04:53:35;;;;;;;;;;;7.10;99.90;;;;;;5019031;28;20521;-62
2022/12/01 04:56:03;;;;;;;;;;;7.10;99.90;;;;;;5011173;28;19975;-62
2022/12/01 04:58:31;;;;;;;;;;;7.00;99.90;;;;;;4992706;28;20063;-62
2022/12/01 05:01:01;;;;;;;;;;;6.90;99.90;;;;;;4992081;28;20011;-62
2022/12/01 05:03:29;;;;;;;;;;;7.00;99.90;;;;;;4992561;28;19973;-62
2022/12/01 05:06:02;;;;;;;;;;;7.00;99.90;;;;;;4992452;28;19980;-62
2022/12/01 05:08:31;;;;;;;;;;;7.10;99.90;;;;;;4992681;28;19969;-62
2022/12/01 05:10:59;;;;;;;;;;;7.10;99.90;;;;;;4992380;28;19969;-62
2022/12/01 05:13:27;;;;;;;;;;;7.00;99.90;;;;;;4992679;28;19969;-62
2022/12/01 05:16:03;;;;;;;;;;;6.80;99.90;;;;;;4992139;28;20060;-62
2022/12/01 05:18:31;;;;;;;;;;;6.90;99.90;;;;;;5011569;28;19995;-62
2022/12/01 05:20:58;;;;;;;;;;;6.90;99.90;;;;;;5017652;28;20581;-62
2022/12/01 05:23:27;;;;;;;;;;;6.90;99.90;;;;;;5012032;28;19975;-62
2022/12/01 05:25:56;;;;;;;;;;;6.90;99.90;;;;;;5016842;28;19964;-62
2022/12/01 05:28:25;;;;;;;;;;;7.00;99.90;;;;;;4992818;28;20316;-62
2022/12/01 05:30:53;;;;;;;;;;;6.70;99.90;;;;;;4991797;28;20035;-62
2022/12/01 05:33:22;;;;;;;;;;;6.70;99.90;;;;;;4992380;28;19973;-62
2022/12/01 05:35:49;;;;;;;;;;;6.50;99.90;;;;;;5000033;28;19972;-61
2022/12/01 05:38:17;;;;;;;;;;;6.30;99.90;;;;;;5000562;28;19968;-61
2022/12/01 05:40:49;;;;;;;;;;;6.30;99.90;;;;;;4999838;28;19965;-61
2022/12/01 05:43:18;;;;;;;;;;;6.20;99.90;;;;;;5000495;28;19971;-61
2022/12/01 05:45:54;;;;;;;;;;;6.00;99.90;;;;;;4998475;28;19973;-61
2022/12/01 05:48:22;;;;;;;;;;;6.10;99.90;;;;;;4999936;28;19979;-62
2022/12/01 05:50:49;;;;;;;;;;;5.90;99.90;;;;;;5000596;28;19964;-61
2022/12/01 05:53:18;;;;;;;;;;;5.90;99.90;;;;;;5003279;28;20332;-62
2022/12/01 05:55:45;;;;;;;;;;;5.80;99.90;;;;;;5002128;28;19965;-61
2022/12/01 05:58:13;;;;;;;;;;;5.60;99.90;;;;;;5003648;28;20472;-61
2022/12/01 06:00:42;;;;;;;;;;;5.60;99.90;;;;;;5003129;28;20519;-61
2022/12/01 06:03:12;;;;;;;;;;;5.50;99.90;;;;;;5004269;28;20398;-61
2022/12/01 06:05:40;;;;;;;;;;;5.50;99.90;;;;;;5001190;28;20026;-62
2022/12/01 06:08:08;;;;;;;;;;;5.40;99.90;;;;;;5004505;28;19972;-61
2022/12/01 06:10:36;;;;;;;;;;;5.30;99.90;;;;;;5003747;28;20319;-61
2022/12/01 06:13:04;;;;;;;;;;;5.30;99.90;;;;;;5004535;28;19973;-62
2022/12/01 06:15:31;;;;;;;;;;;5.20;99.90;;;;;;5002182;28;19977;-62
2022/12/01 06:18:00;;;;;;;;;;;5.20;99.90;;;;;;5003471;28;19972;-62
2022/12/01 06:20:28;;;;;;;;;;;5.20;99.90;;;;;;5003036;28;19991;-62
2022/12/01 06:22:56;;;;;;;;;;;5.10;99.90;;;;;;5003423;28;19972;-62
2022/12/01 06:25:23;;;;;;;;;;;5.10;99.90;;;;;;5000654;28;19980;-61
2022/12/01 06:27:55;;;;;;;;;;;5.00;99.90;;;;;;5003263;28;19972;-62
2022/12/01 06:30:22;;;;;;;;;;;5.00;99.90;;;;;;5019589;28;19964;-62
2022/12/01 06:32:50;;;;;;;;;;;5.10;99.90;;;;;;5027811;28;19974;-62
2022/12/01 06:35:19;;;;;;;;;;;5.00;99.90;;;;;;5023887;28;19969;-62
2022/12/01 06:37:47;;;;;;;;;;;5.00;99.90;;;;;;5007987;28;19972;-62
2022/12/01 06:40:15;;;;;;;;;;;5.00;99.90;;;;;;5013564;28;19965;-63
2022/12/01 06:42:42;;;;;;;;;;;5.00;99.90;;;;;;5009831;28;20326;-62
2022/12/01 06:45:11;;;;;;;;;;;5.00;99.90;;;;;;5013330;28;20001;-63
2022/12/01 06:47:38;;;;;;;;;;;5.10;99.90;;;;;;5013394;28;19976;-63
2022/12/01 06:50:08;;;;;;;;;;;5.00;99.90;;;;;;5013795;28;20055;-63
2022/12/01 06:52:37;;;;;;;;;;;5.00;99.90;;;;;;5013494;28;19995;-63
2022/12/01 06:55:06;;;;;;;;;;;4.90;99.90;;;;;;5014202;28;20053;-63
2022/12/01 06:57:34;;;;;;;;;;;4.80;99.90;;;;;;5014320;28;19969;-63
2022/12/01 07:00:03;;;;;;;;;;;4.80;99.90;;;;;;5013735;28;20026;-63
2022/12/01 07:02:31;;;;;;;;;;;4.80;99.90;;;;;;5013042;28;20361;-63
2022/12/01 07:04:59;;;;;;;;;;;4.80;99.90;;;;;;5014280;28;20023;-63
2022/12/01 07:07:26;;;;;;;;;;;4.80;99.90;;;;;;5021865;28;19964;-62
2022/12/01 07:09:56;;;;;;;;;;;4.80;99.90;;;;;;5027483;28;19972;-63
2022/12/01 07:12:23;;;;;;;;;;;4.80;99.90;;;;;;5033619;28;19968;-63
2022/12/01 07:14:51;;;;;;;;;;;4.80;99.90;;;;;;5033754;28;20079;-63
2022/12/01 07:17:19;;;;;;;;;;;4.70;99.90;;;;;;5033481;28;19983;-63
2022/12/01 07:19:46;;;;;;;;;;;4.70;99.90;;;;;;5032879;28;19973;-63
2022/12/01 07:22:15;;;;;;;;;;;4.80;99.90;;;;;;5034050;28;20007;-63
2022/12/01 07:24:42;;;;;;;;;;;4.80;99.90;;;;;;5033852;28;20506;-63
2022/12/01 07:27:11;;;;;;;;;;;4.70;99.90;;;;;;5033574;28;20442;-63
2022/12/01 07:29:39;;;;;;;;;;;4.70;99.90;;;;;;5033968;28;20352;-62
2022/12/01 07:32:07;;;;;;;;;;;4.70;99.90;;;;;;5033691;28;19968;-63
2022/12/01 07:34:34;;;;;;;;;;;4.70;99.90;;;;;;5033329;28;19975;-63
2022/12/01 07:37:02;;;;;;;;;;;4.70;99.90;;;;;;5030146;28;19972;-63
2022/12/01 07:39:30;;;;;;;;;;;4.70;99.90;;;;;;5024713;28;20491;-61
2022/12/01 07:41:57;;;;;;;;;;;4.70;99.90;;;;;;5033080;28;20429;-63
2022/12/01 07:44:26;;;;;;;;;;;4.70;99.90;;;;;;5033140;28;20014;-63
2022/12/01 07:46:54;;;;;;;;;;;4.70;99.90;;;;;;5032667;28;19973;-63
2022/12/01 07:49:22;;;;;;;;;;;4.70;99.90;;;;;;5033128;28;19975;-63
2022/12/01 07:51:50;;;;;;;;;;;4.80;99.90;;;;;;5032318;28;19973;-63
2022/12/01 07:54:19;;;;;;;;;;;4.80;99.90;;;;;;5032947;28;20072;-62
2022/12/01 07:56:47;;;;;;;;;;;4.80;99.90;;;;;;5032922;28;19974;-63
2022/12/01 07:59:15;;;;;;;;;;;4.70;99.90;;;;;;5032700;28;19979;-63
2022/12/01 08:01:45;;;;;;;;;;;4.70;99.90;;;;;;5032493;28;19983;-63
2022/12/01 08:04:12;;;;;;;;;;;4.70;99.90;;;;;;5032873;28;19983;-63
2022/12/01 08:06:40;;;;;;;;;;;4.70;99.90;;;;;;5029563;28;20012;-63
2022/12/01 08:09:08;;;;;;;;;;;4.70;99.90;;;;;;5024493;28;19971;-63
2022/12/01 08:11:36;;;;;;;;;;;4.70;99.90;;;;;;5031992;28;20064;-63
2022/12/01 08:14:03;;;;;;;;;;;4.70;99.90;;;;;;5032129;28;20337;-63
2022/12/01 08:16:31;;;;;;;;;;;4.70;99.90;;;;;;5032784;28;19972;-63
2022/12/01 08:19:00;;;;;;;;;;;4.80;99.90;;;;;;5032606;28;19980;-63
2022/12/01 08:21:28;;;;;;;;;;;4.90;99.90;;;;;;5031773;28;20063;-62
2022/12/01 08:23:56;;;;;;;;;;;4.90;99.90;;;;;;5032828;28;19979;-63
2022/12/01 08:26:25;;;;;;;;;;;5.00;99.90;;;;;;5032268;28;19973;-63
2022/12/01 08:28:52;;;;;;;;;;;5.00;99.90;;;;;;5032214;28;19968;-62
2022/12/01 08:31:21;;;;;;;;;;;5.00;99.90;;;;;;5031700;28;20371;-63
2022/12/01 08:33:50;;;;;;;;;;;5.00;99.90;;;;;;5032354;28;19972;-63
2022/12/01 08:36:20;;;;;;;;;;;5.00;99.90;;;;;;5029259;28;19991;-63
2022/12/01 08:38:49;;;;;;;;;;;5.10;99.90;;;;;;5023640;28;19965;-63
2022/12/01 08:41:17;;;;;;;;;;;5.20;99.90;;;;;;5031562;28;20501;-63
2022/12/01 08:43:45;;;;;;;;;;;5.20;99.90;;;;;;5032254;28;19972;-63
2022/12/01 08:46:30;;;;;;;;;;;5.30;99.90;;;;;;5031898;28;19976;-63
2022/12/01 08:48:58;;;;;;;;;;;5.30;99.90;;;;;;5031901;28;20330;-63
2022/12/01 08:51:28;;;;;;;;;;;5.30;99.90;;;;;;5031490;28;19969;-62
2022/12/01 08:53:56;;;;;;;;;;;5.20;99.90;;;;;;5032142;28;20007;-62
2022/12/01 08:56:25;;;;;;;;;;;5.00;99.90;;;;;;5031914;28;19968;-62
2022/12/01 08:58:54;;;;;;;;;;;5.00;99.90;;;;;;5031682;28;19968;-63
2022/12/01 09:01:21;;;;;;;;;;;4.90;99.90;;;;;;5031260;28;20437;-63
2022/12/01 09:04:03;;;;;;;;;;;4.80;99.90;;;;;;5032228;28;19975;-63
2022/12/01 09:06:33;;;;;;;;;;;4.80;99.90;;;;;;5028833;28;20300;-63
2022/12/01 09:09:01;;;;;;;;;;;4.90;99.90;;;;;;5023123;28;19975;-63
2022/12/01 09:11:29;;;;;;;;;;;4.90;99.90;;;;;;5031037;28;19975;-62
2022/12/01 09:13:58;;;;;;;;;;;4.90;99.90;;;;;;5031744;28;20446;-62
2022/12/01 09:16:26;;;;;;;;;;;4.90;99.90;;;;;;5031988;28;19969;-62
2022/12/01 09:18:54;;;;;;;;;;;5.00;99.90;;;;;;5031633;28;19968;-63
2022/12/01 09:21:23;;;;;;;;;;;5.00;99.90;;;;;;5031039;28;19972;-62
2022/12/01 09:23:53;;;;;;;;;;;5.00;99.90;;;;;;5031762;28;19968;-63
2022/12/01 09:26:20;;;;;;;;;;;5.00;99.90;;;;;;5033757;28;19983;-63
2022/12/01 09:28:52;;;;;;;;;;;5.00;99.90;;;;;;5035577;28;19975;-62
2022/12/01 09:31:22;;;;;;;;;;;5.00;99.90;;;;;;5035601;28;20011;-62
2022/12/01 09:33:53;;;;;;;;;;;5.10;99.90;;;;;;5035701;28;20019;-63
2022/12/01 09:36:21;;;;;;;;;;;5.00;99.90;;;;;;5032790;28;19973;-62
2022/12/01 09:38:49;;;;;;;;;;;5.10;99.90;;;;;;5026866;28;20509;-63
2022/12/01 09:41:20;;;;;;;;;;;5.00;99.90;;;;;;5034853;28;19972;-62
2022/12/01 09:43:51;;;;;;;;;;;5.00;99.90;;;;;;5035423;28;19969;-63
2022/12/01 09:46:40;;;;;;;;;;;5.00;99.90;;;;;;5035935;28;20406;-62
2022/12/01 09:49:11;;;;;;;;;;;5.00;99.90;;;;;;4955001;29;20458;-66
2022/12/01 09:51:38;;;;;;;;;;;5.00;99.90;;;;;;4956498;29;20329;-66
2022/12/01 09:54:06;;;;;;;;;;;5.00;99.90;;;;;;4957237;29;19974;-67
2022/12/01 09:56:40;;;;;;;;;;;5.00;99.90;;;;;;4957004;28;19976;-66
2022/12/01 09:59:11;;;;;;;;;;;5.10;99.90;;;;;;4957250;29;20023;-66
2022/12/01 10:01:41;;;;;;;;;;;5.10;99.90;;;;;;4956528;29;19970;-66
2022/12/01 10:04:11;;;;;;;;;;;5.20;99.90;;;;;;4957259;29;20391;-67
2022/12/01 10:06:40;;;;;;;;;;;5.20;99.90;;;;;;4956792;28;19988;-67
2022/12/01 10:09:16;;;;;;;;;;;5.30;99.90;;;;;;4956632;29;19965;-66
2022/12/01 10:11:46;;;;;;;;;;;5.30;99.90;;;;;;4956250;29;20064;-66
2022/12/01 10:14:14;;;;;;;;;;;5.20;99.90;;;;;;4956919;29;19970;-66
2022/12/01 10:16:51;;;;;;;;;;;5.30;99.90;;;;;;4956823;29;20269;-66
2022/12/01 10:19:22;;;;;;;;;;;5.30;99.90;;;;;;4957097;29;19977;-66
2022/12/01 10:22:00;;;;;;;;;;;5.20;99.90;;;;;;4955930;29;20479;-66
2022/12/01 10:24:33;;;;;;;;;;;5.10;99.90;;;;;;4956703;29;19977;-66
2022/12/01 10:27:07;;;;;;;;;;;5.10;99.90;;;;;;4956539;29;19977;-66
2022/12/01 10:29:39;;;;;;;;;;;5.20;99.90;;;;;;4955799;29;20351;-66
2022/12/01 10:32:17;;;;;;;;;;;5.20;99.90;;;;;;4956489;29;20060;-66
2022/12/01 10:34:46;;;;;;;;;;;5.30;99.90;;;;;;4956334;29;20470;-66
2022/12/01 10:37:16;;;;;;;;;;;5.30;99.90;;;;;;4955658;28;19965;-66
2022/12/01 10:39:45;;;;;;;;;;;5.30;99.90;;;;;;4955321;29;20351;-66
2022/12/01 10:42:17;;;;;;;;;;;5.40;99.90;;;;;;4956261;29;19981;-66
2022/12/01 10:44:45;;;;;;;;;;;5.40;99.90;;;;;;4956070;29;20244;-66
2022/12/01 10:47:18;;;;;;;;;;;5.50;99.90;;;;;;4956021;29;19977;-66
2022/12/01 10:49:46;;;;;;;;;;;5.50;99.90;;;;;;4955375;29;20462;-67
2022/12/01 10:52:29;;;;;;;;;;;5.40;99.90;;;;;;4956217;29;20465;-66
2022/12/01 10:54:57;;;;;;;;;;;5.40;99.90;;;;;;4956029;29;20405;-66
2022/12/01 10:57:26;;;;;;;;;;;5.40;99.90;;;;;;4955764;29;19970;-66
2022/12/01 10:59:56;;;;;;;;;;;5.30;99.90;;;;;;4954908;29;19980;-66
2022/12/01 11:02:25;;;;;;;;;;;5.30;99.90;;;;;;4955907;29;19974;-66
2022/12/01 11:04:54;;;;;;;;;;;5.30;99.90;;;;;;4955884;29;19970;-66
2022/12/01 11:07:23;;;;;;;;;;;5.30;99.90;;;;;;4955486;29;19964;-66
2022/12/01 11:10:02;;;;;;;;;;;5.30;99.90;;;;;;4954786;29;19970;-67
2022/12/01 11:12:31;;;;;;;;;;;5.30;99.90;;;;;;4955809;29;19973;-66
2022/12/01 11:14:59;;;;;;;;;;;5.30;99.90;;;;;;4955620;29;19976;-66
2022/12/01 11:17:31;;;;;;;;;;;5.30;99.90;;;;;;4955599;29;19980;-67
2022/12/01 11:20:16;;;;;;;;;;;5.40;99.90;;;;;;4954711;29;20077;-66
2022/12/01 11:22:44;;;;;;;;;;;5.40;99.90;;;;;;4955370;29;20407;-66
2022/12/01 11:25:18;;;;;;;;;;;5.40;99.90;;;;;;4955499;29;19969;-67
2022/12/01 11:27:50;;;;;;;;;;;5.40;99.90;;;;;;4955530;29;19973;-67
2022/12/01 11:30:20;;;;;;;;;;;5.50;99.90;;;;;;4954700;29;20473;-67
2022/12/01 11:32:51;;;;;;;;;;;5.60;99.90;;;;;;4955237;29;20056;-67
2022/12/01 11:35:21;;;;;;;;;;;5.50;99.90;;;;;;4955527;29;19981;-66
2022/12/01 11:37:50;;;;;;;;;;;5.50;99.90;;;;;;4954903;29;19987;-67
2022/12/01 11:40:44;;;;;;;;;;;5.50;99.90;;;;;;4935441;29;19970;-66
2022/12/01 11:43:17;;;;;;;;;;;5.50;99.90;;;;;;4936086;29;19976;-66
2022/12/01 11:45:45;;;;;;;;;;;5.50;99.90;;;;;;4936136;29;19970;-66
2022/12/01 11:48:22;;;;;;;;;;;5.40;99.90;;;;;;4935022;29;20392;-66
2022/12/01 11:51:00;;;;;;;;;;;5.40;99.90;;;;;;4935231;29;20477;-66
2022/12/01 11:53:28;;;;;;;;;;;5.40;99.90;;;;;;4935784;29;20351;-67
2022/12/01 11:56:13;;;;;;;;;;;5.40;99.90;;;;;;4936086;29;19984;-67
2022/12/01 11:58:42;;;;;;;;;;;5.50;99.90;;;;;;4935657;29;19970;-66
2022/12/01 12:01:15;;;;;;;;;;;5.50;99.90;;;;;;4935045;29;20352;-66
2022/12/01 12:03:52;;;;;;;;;;;5.70;99.90;;;;;;4935737;29;19977;-67
2022/12/01 12:06:22;;;;;;;;;;;5.70;99.90;;;;;;4939282;28;19973;-66
2022/12/01 12:09:15;;;;;;;;;;;5.70;99.90;;;;;;4954267;29;19972;-66
2022/12/01 12:11:46;;;;;;;;;;;5.70;99.90;;;;;;4953832;29;19980;-66
2022/12/01 12:14:20;;;;;;;;;;;5.70;99.90;;;;;;4954683;29;19980;-66
2022/12/01 12:17:08;;;;;;;;;;;5.70;99.90;;;;;;4954449;29;20061;-66
2022/12/01 12:19:42;;;;;;;;;;;5.70;99.90;;;;;;4953959;29;19970;-66
2022/12/01 12:22:36;;;;;;;;;;;5.70;99.90;;;;;;4954407;29;19969;-66
2022/12/01 12:25:11;;;;;;;;;;;5.80;99.90;;;;;;4954325;29;19974;-66
2022/12/01 12:27:43;;;;;;;;;;;5.70;99.90;;;;;;4954596;29;20028;-66
2022/12/01 12:30:19;;;;;;;;;;;5.80;99.90;;;;;;4953721;29;20366;-66
2022/12/01 12:33:07;;;;;;;;;;;5.70;99.90;;;;;;4954379;29;19969;-66
2022/12/01 12:35:40;;;;;;;;;;;5.60;99.90;;;;;;4954455;29;19974;-66
2022/12/01 12:38:12;;;;;;;;;;;5.60;99.90;;;;;;4951137;28;19969;-66
2022/12/01 12:40:42;;;;;;;;;;;5.60;99.90;;;;;;4953328;28;20328;-66
2022/12/01 12:43:18;;;;;;;;;;;5.70;99.90;;;;;;4954440;29;19969;-66
2022/12/01 12:45:51;;;;;;;;;;;5.80;99.90;;;;;;4954292;29;19976;-66
2022/12/01 12:48:23;;;;;;;;;;;5.90;99.90;;;;;;4954159;29;19977;-66
2022/12/01 12:50:54;;;;;;;;;;;5.90;99.90;;;;;;4953500;29;20332;-66
2022/12/01 12:53:24;;;;;;;;;;;5.90;99.90;;;;;;4953936;29;19995;-66
2022/12/01 12:55:53;;;;;;;;;;;5.80;99.90;;;;;;4953921;29;19978;-67
2022/12/01 12:58:23;;;;;;;;;;;5.80;99.90;;;;;;4953958;29;19969;-66
2022/12/01 13:00:54;;;;;;;;;;;5.80;99.90;;;;;;4953372;28;19970;-66
2022/12/01 13:03:24;;;;;;;;;;;5.80;99.90;;;;;;4953824;29;20076;-66
2022/12/01 13:06:01;;;;;;;;;;;5.90;99.90;;;;;;4954014;29;19970;-66
2022/12/01 13:08:33;;;;;;;;;;;5.80;99.90;;;;;;4953724;29;19973;-66
2022/12/01 13:11:02;;;;;;;;;;;5.90;99.90;;;;;;4953016;29;19974;-66
2022/12/01 13:13:33;;;;;;;;;;;5.90;99.90;;;;;;4953881;29;20358;-66
2022/12/01 13:16:04;;;;;;;;;;;5.90;99.90;;;;;;4953789;29;19970;-66
2022/12/01 13:18:34;;;;;;;;;;;5.90;99.90;;;;;;4953677;29;19978;-66
2022/12/01 13:21:02;;;;;;;;;;;6.00;99.90;;;;;;4952772;29;19970;-66
2022/12/01 13:23:30;;;;;;;;;;;6.00;99.90;;;;;;4953798;29;20068;-65
2022/12/01 13:25:59;;;;;;;;;;;6.00;99.90;;;;;;4953942;29;19984;-66
2022/12/01 13:28:28;;;;;;;;;;;6.00;99.90;;;;;;4953527;29;19974;-66
2022/12/01 13:31:05;;;;;;;;;;;6.00;99.90;;;;;;4952693;29;20411;-66
2022/12/01 13:33:33;;;;;;;;;;;6.00;99.90;;;;;;4953934;29;19974;-66
2022/12/01 13:36:01;;;;;;;;;;;6.00;99.90;;;;;;4953585;29;20455;-66
2022/12/01 13:38:55;;;;;;;;;;;6.00;99.90;;;;;;4953335;29;19972;-66
2022/12/01 13:41:24;;;;;;;;;;;6.00;99.90;;;;;;4952496;29;19976;-66
2022/12/01 13:43:54;;;;;;;;;;;5.90;99.90;;;;;;4953802;29;19977;-66
2022/12/01 13:46:24;;;;;;;;;;;6.00;99.90;;;;;;4953551;29;19970;-66
2022/12/01 13:48:54;;;;;;;;;;;6.00;99.90;;;;;;4953747;29;20009;-66
2022/12/01 13:51:22;;;;;;;;;;;5.90;99.90;;;;;;4952641;29;19976;-66
2022/12/01 13:53:55;;;;;;;;;;;6.00;99.90;;;;;;4953226;29;20013;-67
2022/12/01 13:56:26;;;;;;;;;;;6.10;99.90;;;;;;4953182;29;19970;-66
2022/12/01 13:58:54;;;;;;;;;;;6.10;99.90;;;;;;4953432;29;20061;-65
2022/12/01 14:01:46;;;;;;;;;;;6.10;99.90;;;;;;4952445;29;19984;-66
2022/12/01 14:04:30;;;;;;;;;;;6.10;99.90;;;;;;4953305;29;19969;-66
2022/12/01 14:07:16;;;;;;;;;;;6.10;99.90;;;;;;4953195;29;19973;-66
2022/12/01 14:09:44;;;;;;;;;;;6.00;99.90;;;;;;4945426;29;19966;-66
2022/12/01 14:12:15;;;;;;;;;;;6.00;99.90;;;;;;4955301;28;19970;-66
2022/12/01 14:14:46;;;;;;;;;;;6.10;99.90;;;;;;4956737;29;19976;-66
2022/12/01 14:17:24;;;;;;;;;;;6.00;99.90;;;;;;4956667;29;19974;-66
2022/12/01 14:19:52;;;;;;;;;;;6.00;99.90;;;;;;4955947;29;19970;-66
2022/12/01 14:22:31;;;;;;;;;;;6.00;99.90;;;;;;4956472;29;19970;-66
2022/12/01 14:24:59;;;;;;;;;;;5.90;99.90;;;;;;4956784;29;20177;-66
2022/12/01 14:27:34;;;;;;;;;;;5.90;99.90;;;;;;4956374;29;20056;-66
2022/12/01 14:30:17;;;;;;;;;;;6.00;99.90;;;;;;4955978;29;20441;-69
2022/12/01 14:32:46;;;;;;;;;;;5.90;99.90;;;;;;4956434;29;20481;-66
2022/12/01 14:35:14;;;;;;;;;;;5.90;99.90;;;;;;4956639;29;19975;-65
2022/12/01 14:37:43;;;;;;;;;;;5.80;99.90;;;;;;4956196;28;20444;-66
2022/12/01 14:40:15;;;;;;;;;;;5.80;99.90;;;;;;4955623;29;19966;-66
2022/12/01 14:45:32;;;;;;;;;;;5.80;99.90;;;;;;4956321;29;19980;-66
2022/12/01 14:48:02;;;;;;;;;;;5.70;99.90;;;;;;4955931;29;20073;-66
2022/12/01 14:50:34;;;;;;;;;;;5.70;99.90;;;;;;4955202;29;20072;-66
2022/12/01 14:53:05;;;;;;;;;;;5.60;99.90;;;;;;4955948;29;20060;-66
2022/12/01 14:55:35;;;;;;;;;;;5.60;99.90;;;;;;4956070;29;19976;-66
2022/12/01 14:58:05;;;;;;;;;;;5.50;99.90;;;;;;4955957;29;19976;-67